LEMD/MAD METAR and TAF weather

Enter ICAO airport designator
Station Type Date Time Source
LEMD METAR 2020/01/28 11:30 UTC NOAA

LEMD 281130Z 24016KT 220V280 9999 FEW015 SCT050 13/09 Q1023 NOSIG


Station Type Date Time Source
LEMD Decoded METAR 2020/01/28 11:30 UTC NOAA

Madrid / Barajas, Spain (LEMD) 40-27N 003-33W 582M
Jan 28, 2020 - 06:30 AM EST / 2020.01.28 1130 UTC
Wind: from the WSW (240 degrees) at 18 MPH (16 KT) (direction variable):0
Visibility: greater than 7 mile(s):0
Sky conditions: partly cloudy
Temperature: 55 F (13 C)
Dew Point: 48 F (9 C)
Relative Humidity: 76%
Pressure (altimeter): 30.21 in. Hg (1023 hPa)
ob: LEMD 281130Z 24016KT 220V280 9999 FEW015 SCT050 13/09 Q1023 NOSIG
cycle: 11

Station Type Date Time Source
LEMD TAF 2020/01/28 12:27 UTC NOAA

TAF LEMD 281100Z 2812/2918 23013KT 9999 SCT040 TX13/2815Z TN09/2906Z PROB30
TEMPO 2812/2813 BKN010
TEMPO 2812/2819 23018G30KT
BECMG 2822/2901 BKN011 PROB40
TEMPO 2823/2910 4000 BR BKN006 PROB30
TEMPO 2902/2909 0300 FG VV002 PROB40
TEMPO 2905/2910 SCT012
BECMG 2910/2912 SCT012

Example: see airport list